createdAt,value
2018-06-15T00:00:40.969Z,100121.14
2018-06-15T00:03:43.900Z,100119.75
2018-06-15T00:06:47.016Z,100114.58
2018-06-15T00:09:49.959Z,100115.39
2018-06-15T00:12:52.916Z,100106.48
2018-06-15T00:15:55.811Z,100105.85
2018-06-15T00:18:58.726Z,100107.33
2018-06-15T00:22:01.629Z,100105.73
2018-06-15T00:25:04.561Z,100104.44
2018-06-15T00:28:07.466Z,100106.05
2018-06-15T00:31:10.390Z,100100.29
2018-06-15T00:34:13.381Z,100106.98
2018-06-15T00:37:16.248Z,100108.32
2018-06-15T00:40:19.265Z,100108.53
2018-06-15T00:43:22.161Z,100113.02
2018-06-15T00:46:25.088Z,100113.27
2018-06-15T00:49:27.993Z,100109.95
2018-06-15T00:52:30.940Z,100110.67
2018-06-15T00:55:33.872Z,100107.20
2018-06-15T00:58:36.804Z,100103.63
2018-06-15T01:01:39.770Z,100104.18
2018-06-15T01:04:42.693Z,100100.76
2018-06-15T01:07:45.586Z,100106.80
2018-06-15T01:10:48.512Z,100104.25
2018-06-15T01:13:51.414Z,100104.39
2018-06-15T01:16:54.349Z,100099.69
2018-06-15T01:19:57.967Z,100098.56
2018-06-15T01:23:00.888Z,100099.47
2018-06-15T01:26:03.833Z,100097.08
2018-06-15T01:29:06.767Z,100094.05
2018-06-15T01:32:09.655Z,100089.69
2018-06-15T01:35:12.566Z,100089.01
2018-06-15T01:38:15.525Z,100098.13
2018-06-15T01:41:18.441Z,100089.01
2018-06-15T01:44:21.310Z,100087.97
2018-06-15T01:47:24.233Z,100081.52
2018-06-15T01:53:36.678Z,100089.20
2018-06-15T01:56:39.566Z,100085.66
2018-06-15T01:59:42.482Z,100086.01
2018-06-15T02:02:45.419Z,100091.32
2018-06-15T02:05:48.305Z,100092.19
2018-06-15T02:08:51.198Z,100090.64
2018-06-15T02:11:54.108Z,100088.30
2018-06-15T02:14:57.033Z,100083.12
2018-06-15T02:17:59.942Z,100078.99
2018-06-15T02:21:02.847Z,100087.50
2018-06-15T02:24:05.804Z,100082.93
2018-06-15T02:27:09.393Z,100081.59
2018-06-15T02:30:12.309Z,100079.82
2018-06-15T02:33:15.213Z,100079.61
2018-06-15T02:36:18.232Z,100081.16
2018-06-15T02:39:21.127Z,100091.02
2018-06-15T02:42:24.035Z,100086.62
2018-06-15T02:45:26.956Z,100090.96
2018-06-15T02:48:29.843Z,100092.21
2018-06-15T02:51:32.791Z,100086.70
2018-06-15T02:54:35.708Z,100075.98
2018-06-15T02:57:38.614Z,100080.66
2018-06-15T03:00:41.556Z,100086.01
2018-06-15T03:03:44.736Z,100090.80
2018-06-15T03:06:47.665Z,100086.23
2018-06-15T03:09:50.593Z,100094.20
2018-06-15T03:12:53.550Z,100091.59
2018-06-15T03:15:56.461Z,100086.62
2018-06-15T03:18:59.384Z,100090.26
2018-06-15T03:22:04.308Z,100098.58
2018-06-15T03:25:07.411Z,100102.39
2018-06-15T03:28:10.281Z,100105.33
2018-06-15T03:31:15.815Z,100113.66
2018-06-15T03:34:19.565Z,100104.78
2018-06-15T03:37:22.462Z,100114.81
2018-06-15T03:40:25.376Z,100106.20
2018-06-15T03:43:28.330Z,100111.95
2018-06-15T03:46:31.307Z,100115.17
2018-06-15T03:49:34.199Z,100128.43
2018-06-15T03:52:37.094Z,100127.84
2018-06-15T03:55:40.056Z,100127.09
2018-06-15T03:58:42.960Z,100126.00
2018-06-15T04:01:45.884Z,100130.78
2018-06-15T04:04:48.774Z,100133.72
2018-06-15T04:07:51.718Z,100131.11
2018-06-15T04:10:54.620Z,100134.80
2018-06-15T04:13:57.513Z,100135.09
2018-06-15T04:17:00.404Z,100125.24
2018-06-15T04:20:03.372Z,100134.08
2018-06-15T04:23:06.588Z,100137.70
2018-06-15T04:26:09.448Z,100127.38
2018-06-15T04:29:12.368Z,100125.02
2018-06-15T04:32:15.287Z,100129.69
2018-06-15T04:35:18.180Z,100114.38
2018-06-15T04:38:21.119Z,100146.20
2018-06-15T04:41:24.061Z,100149.36
2018-06-15T04:44:26.954Z,100155.05
2018-06-15T04:47:29.833Z,100152.25
2018-06-15T04:50:32.727Z,100154.79
2018-06-15T04:53:35.608Z,100153.27
2018-06-15T04:56:38.613Z,100149.02
2018-06-15T04:59:41.523Z,100151.12
2018-06-15T05:02:44.414Z,100147.31
2018-06-15T05:05:47.324Z,100146.84
2018-06-15T05:08:50.162Z,100148.64
2018-06-15T05:11:53.053Z,100156.82
2018-06-15T05:14:55.948Z,100156.77
2018-06-15T05:17:58.845Z,100166.48
2018-06-15T05:21:03.685Z,100164.41
2018-06-15T05:24:06.665Z,100162.80
2018-06-15T05:27:09.845Z,100163.88
2018-06-15T05:30:12.733Z,100160.80
2018-06-15T05:33:15.659Z,100163.61
2018-06-15T05:36:18.641Z,100158.61
2018-06-15T05:39:21.641Z,100151.42
2018-06-15T05:42:24.563Z,100164.32
2018-06-15T05:45:27.512Z,100165.39
2018-06-15T05:48:30.466Z,100165.22
2018-06-15T05:51:33.452Z,100168.77
2018-06-15T05:54:36.377Z,100170.69
2018-06-15T05:57:39.279Z,100167.88
2018-06-15T06:00:42.297Z,100166.81
2018-06-15T06:03:45.355Z,100167.50
2018-06-15T06:06:48.330Z,100165.22
2018-06-15T06:09:51.265Z,100162.27
2018-06-15T06:12:54.196Z,100176.88
2018-06-15T06:15:57.169Z,100172.31
2018-06-15T06:19:00.064Z,100171.64
2018-06-15T06:22:03.099Z,100186.23
2018-06-15T06:25:06.218Z,100185.73
2018-06-15T06:28:09.247Z,100197.69
2018-06-15T06:31:12.165Z,100195.91
2018-06-15T06:34:15.096Z,100199.98
2018-06-15T06:37:18.021Z,100199.94
2018-06-15T06:40:21.003Z,100197.97
2018-06-15T06:43:24.313Z,100205.55
2018-06-15T06:46:27.309Z,100210.25
2018-06-15T06:49:30.240Z,100203.45
2018-06-15T06:52:33.149Z,100205.22
2018-06-15T06:55:36.053Z,100203.56
2018-06-15T06:58:39.037Z,100206.64
2018-06-15T07:01:41.961Z,100196.48
2018-06-15T07:07:47.300Z,100203.88
2018-06-15T07:10:50.224Z,100199.64
2018-06-15T07:13:53.183Z,100202.98
2018-06-15T07:16:56.081Z,100207.08
2018-06-15T07:19:59.673Z,100187.45
2018-06-15T07:23:02.598Z,100206.69
2018-06-15T07:26:05.597Z,100207.53
2018-06-15T07:29:08.482Z,100204.36
2018-06-15T07:32:11.487Z,100206.36
2018-06-15T07:35:14.393Z,100200.59
2018-06-15T07:38:17.291Z,100208.52
2018-06-15T07:41:20.194Z,100207.94
2018-06-15T07:44:23.093Z,100208.21
2018-06-15T07:47:26.033Z,100206.09
2018-06-15T07:50:28.939Z,100204.92
2018-06-15T07:53:31.885Z,100208.90
2018-06-15T07:56:34.788Z,100208.03
2018-06-15T07:59:37.732Z,100208.97
2018-06-15T08:02:40.642Z,100208.00
2018-06-15T08:05:43.550Z,100211.65
2018-06-15T08:08:46.460Z,100208.37
2018-06-15T08:11:49.355Z,100206.65
2018-06-15T08:14:52.343Z,100207.81
2018-06-15T08:17:55.369Z,100209.55
2018-06-15T08:20:58.328Z,100213.61
2018-06-15T08:24:01.257Z,100210.80
2018-06-15T08:27:04.335Z,100207.83
2018-06-15T08:30:07.227Z,100209.36
2018-06-15T08:33:10.393Z,100203.28
2018-06-15T08:36:13.333Z,100205.56
2018-06-15T08:39:16.269Z,100206.67
2018-06-15T08:42:19.194Z,100207.02
2018-06-15T08:45:22.106Z,100205.04
2018-06-15T08:48:24.987Z,100212.08
2018-06-15T08:51:27.909Z,100204.64
2018-06-15T08:54:30.812Z,100208.44
2018-06-15T08:57:33.761Z,100205.80
2018-06-15T09:00:36.653Z,100202.86
2018-06-15T09:03:39.597Z,100202.40
2018-06-15T09:06:42.533Z,100202.63
2018-06-15T09:09:45.434Z,100210.63
2018-06-15T09:12:48.363Z,100211.09
2018-06-15T09:15:51.284Z,100201.45
2018-06-15T09:18:54.174Z,100200.47
2018-06-15T09:21:57.101Z,100207.42
2018-06-15T09:25:00.043Z,100204.93
2018-06-15T09:28:02.942Z,100200.59
2018-06-15T09:31:05.853Z,100199.77
2018-06-15T09:34:09.249Z,100198.84
2018-06-15T09:37:12.208Z,100195.23
2018-06-15T09:40:15.156Z,100200.50
2018-06-15T09:43:18.072Z,100196.48
2018-06-15T09:46:20.990Z,100204.57
2018-06-15T09:49:23.870Z,100203.48
2018-06-15T09:52:26.815Z,100204.20
2018-06-15T09:55:29.762Z,100209.02
2018-06-15T09:58:32.715Z,100206.87
2018-06-15T10:01:35.645Z,100203.98
2018-06-15T10:04:38.566Z,100201.03
2018-06-15T10:07:41.505Z,100199.77
2018-06-15T10:10:44.419Z,100204.75
2018-06-15T10:13:47.368Z,100204.55
2018-06-15T10:16:50.321Z,100204.55
2018-06-15T10:19:53.225Z,100208.73
2018-06-15T10:22:56.175Z,100210.70
2018-06-15T10:25:59.054Z,100209.30
2018-06-15T10:29:02.086Z,100200.89
2018-06-15T10:32:05.279Z,100204.03
2018-06-15T10:35:08.217Z,100205.31
2018-06-15T10:38:11.125Z,100207.56
2018-06-15T10:41:14.083Z,100204.36
2018-06-15T10:44:17.003Z,100199.78
2018-06-15T10:47:19.905Z,100199.95
2018-06-15T10:50:22.830Z,100201.58
2018-06-15T10:53:25.718Z,100197.52
2018-06-15T10:56:28.638Z,100193.58
2018-06-15T10:59:31.549Z,100195.08
2018-06-15T11:02:34.443Z,100194.61
2018-06-15T11:05:37.341Z,100184.95
2018-06-15T11:08:40.268Z,100196.30
2018-06-15T11:11:43.165Z,100187.16
2018-06-15T11:14:46.133Z,100192.30
2018-06-15T11:17:49.078Z,100187.55
2018-06-15T11:20:51.984Z,100187.62
2018-06-15T11:23:54.915Z,100182.89
2018-06-15T11:26:57.837Z,100182.98
2018-06-15T11:30:00.751Z,100181.00
2018-06-15T11:33:03.670Z,100180.77
2018-06-15T11:36:06.597Z,100180.66
2018-06-15T11:39:10.384Z,100178.34
2018-06-15T11:42:13.333Z,100164.88
2018-06-15T11:45:16.252Z,100163.99
2018-06-15T11:48:19.146Z,100163.82
2018-06-15T11:51:22.042Z,100161.59
2018-06-15T11:54:24.987Z,100162.50
2018-06-15T11:57:28.047Z,100166.14
2018-06-15T12:03:39.427Z,100156.30
2018-06-15T12:06:43.128Z,100152.27
2018-06-15T12:09:47.203Z,100158.02
2018-06-15T12:12:51.685Z,100154.70
2018-06-15T12:15:54.902Z,100152.50
2018-06-15T12:18:58.275Z,100145.47
2018-06-15T12:22:02.904Z,100144.36
2018-06-15T12:25:06.155Z,100140.58
2018-06-15T12:28:09.236Z,100135.53
2018-06-15T12:31:12.904Z,100133.02
2018-06-15T12:34:16.054Z,100135.56
2018-06-15T12:37:19.106Z,100131.13
2018-06-15T12:40:22.948Z,100142.39
2018-06-15T12:43:26.835Z,100142.39
2018-06-15T12:46:30.904Z,100142.90
2018-06-15T12:49:33.819Z,100144.98
2018-06-15T12:52:37.041Z,100139.49
2018-06-15T12:55:40.208Z,100130.91
2018-06-15T12:58:44.407Z,100141.56
2018-06-15T13:01:47.757Z,100132.94
2018-06-15T13:04:50.808Z,100137.93
2018-06-15T13:07:53.918Z,100130.95
2018-06-15T13:10:57.389Z,100127.72
2018-06-15T13:14:01.273Z,100127.80
2018-06-15T13:17:04.755Z,100126.41
2018-06-15T13:20:07.959Z,100130.07
2018-06-15T13:23:11.368Z,100128.00
2018-06-15T13:26:14.677Z,100122.86
2018-06-15T13:29:18.115Z,100113.76
2018-06-15T13:32:21.940Z,100129.55
2018-06-15T13:35:25.105Z,100127.41
2018-06-15T13:38:29.631Z,100130.57
2018-06-15T13:41:32.679Z,100122.96
2018-06-15T13:44:35.933Z,100126.44
2018-06-15T13:47:39.806Z,100123.35
2018-06-15T13:50:43.350Z,100118.16
2018-06-15T13:53:46.786Z,100126.08
2018-06-15T13:56:50.474Z,100116.75
2018-06-15T13:59:54.088Z,100120.51
2018-06-15T14:02:57.444Z,100115.63
2018-06-15T14:06:00.866Z,100122.75
2018-06-15T14:09:06.523Z,100117.97
2018-06-15T14:12:09.859Z,100108.17
2018-06-15T14:15:13.658Z,100116.32
2018-06-15T14:18:17.244Z,100111.88
2018-06-15T14:21:20.190Z,100112.48
2018-06-15T14:24:23.585Z,100111.28
2018-06-15T14:27:26.603Z,100108.14
2018-06-15T14:30:30.252Z,100104.22
2018-06-15T14:33:33.641Z,100101.14
2018-06-15T14:36:36.756Z,100106.39
2018-06-15T14:39:40.884Z,100108.91
2018-06-15T14:42:44.887Z,100099.11
2018-06-15T14:45:49.547Z,100102.14
2018-06-15T14:48:53.792Z,100097.67
2018-06-15T14:51:57.054Z,100101.48
2018-06-15T14:55:00.750Z,100098.67
2018-06-15T14:58:04.184Z,100100.33
2018-06-15T15:01:08.673Z,100094.56
2018-06-15T15:04:12.017Z,100095.20
2018-06-15T15:07:15.829Z,100092.30
2018-06-15T15:10:19.975Z,100087.70
2018-06-15T15:13:23.934Z,100079.55
2018-06-15T15:16:27.128Z,100082.97
2018-06-15T15:19:30.604Z,100077.10
2018-06-15T15:22:33.662Z,100080.69
2018-06-15T15:25:36.874Z,100084.45
2018-06-15T15:28:41.041Z,100084.03
2018-06-15T15:31:45.365Z,100078.70
2018-06-15T15:34:49.743Z,100077.34
2018-06-15T15:37:54.264Z,100078.17
2018-06-15T15:40:57.361Z,100082.34
2018-06-15T15:44:01.239Z,100074.89
2018-06-15T15:47:05.386Z,100083.82
2018-06-15T15:50:08.990Z,100078.16
2018-06-15T15:53:12.857Z,100079.80
2018-06-15T15:56:15.965Z,100070.03
2018-06-15T15:59:20.117Z,100061.08
2018-06-15T16:02:23.436Z,100053.62
2018-06-15T16:05:27.139Z,100053.09
2018-06-15T16:08:31.501Z,100046.34
2018-06-15T16:11:35.140Z,100050.87
2018-06-15T16:14:39.375Z,100053.22
2018-06-15T16:17:44.477Z,100059.53
2018-06-15T16:20:47.948Z,100051.19
2018-06-15T16:23:50.839Z,100049.92
2018-06-15T16:26:54.364Z,100040.62
2018-06-15T16:29:57.686Z,100049.70
2018-06-15T16:33:02.265Z,100046.12
2018-06-15T16:36:05.184Z,100052.07
2018-06-15T16:39:09.334Z,100045.51
2018-06-15T16:42:12.837Z,100048.77
2018-06-15T16:45:16.643Z,100050.77
2018-06-15T16:48:20.409Z,100045.52
2018-06-15T16:51:23.617Z,100044.29
2018-06-15T16:54:27.028Z,100039.33
2018-06-15T16:57:30.021Z,100044.37
2018-06-15T17:00:32.917Z,100046.98
2018-06-15T17:03:36.173Z,100045.58
2018-06-15T17:06:39.345Z,100043.29
2018-06-15T17:09:42.352Z,100043.42
2018-06-15T17:12:45.257Z,100040.59
2018-06-15T17:15:48.164Z,100043.65
2018-06-15T17:18:51.085Z,100051.83
2018-06-15T17:21:54.145Z,100055.09
2018-06-15T17:24:57.033Z,100053.22
2018-06-15T17:27:59.921Z,100059.55
2018-06-15T17:31:02.833Z,100058.89
2018-06-15T17:34:05.944Z,100062.45
2018-06-15T17:37:08.824Z,100066.02
2018-06-15T17:40:14.404Z,100059.53
2018-06-15T17:43:17.494Z,100055.88
2018-06-15T17:46:21.029Z,100060.15
2018-06-15T17:49:24.019Z,100063.28
2018-06-15T17:52:27.535Z,100067.43
2018-06-15T17:55:31.116Z,100066.84
2018-06-15T17:58:35.118Z,100066.97
2018-06-15T18:01:39.349Z,100071.29
2018-06-15T18:04:42.457Z,100067.36
2018-06-15T18:07:46.135Z,100068.02
2018-06-15T18:10:49.659Z,100070.11
2018-06-15T18:13:53.090Z,100065.08
2018-06-15T18:16:56.553Z,100060.27
2018-06-15T18:19:59.924Z,100064.34
2018-06-15T18:23:03.002Z,100065.69
2018-06-15T18:26:06.253Z,100069.51
2018-06-15T18:29:10.240Z,100064.48
2018-06-15T18:32:13.552Z,100073.95
2018-06-15T18:35:16.577Z,100075.52
2018-06-15T18:38:19.956Z,100071.34
2018-06-15T18:41:23.938Z,100066.78
2018-06-15T18:44:28.145Z,100075.11
2018-06-15T18:47:32.123Z,100072.61
2018-06-15T18:50:35.129Z,100066.43
2018-06-15T18:53:38.483Z,100067.35
2018-06-15T18:56:42.684Z,100073.08
2018-06-15T18:59:46.267Z,100069.19
2018-06-15T19:02:49.392Z,99970.00
2018-06-15T19:05:52.681Z,100071.13
2018-06-15T19:08:56.441Z,100067.67
2018-06-15T19:12:00.063Z,100065.56
2018-06-15T19:15:03.716Z,100060.89
2018-06-15T19:18:07.531Z,100068.21
2018-06-15T19:21:11.039Z,100067.11
2018-06-15T19:24:14.011Z,100067.17
2018-06-15T19:27:17.746Z,100066.31
2018-06-15T19:30:21.573Z,100068.80
2018-06-15T19:33:24.502Z,100071.88
2018-06-15T19:36:27.560Z,100068.93
2018-06-15T19:39:31.065Z,100072.73
2018-06-15T19:42:34.249Z,100066.79
2018-06-15T19:45:37.844Z,100066.47
2018-06-15T19:48:41.154Z,100075.49
2018-06-15T19:51:44.186Z,100072.03
2018-06-15T19:54:47.729Z,100071.13
2018-06-15T19:57:51.493Z,100074.16
2018-06-15T20:00:54.603Z,100068.38
2018-06-15T20:03:58.487Z,100070.41
2018-06-15T20:07:01.764Z,100071.13
2018-06-15T20:10:04.776Z,100070.60
2018-06-15T20:13:08.512Z,100068.39
2018-06-15T20:16:11.662Z,100068.77
2018-06-15T20:19:14.946Z,100061.06
2018-06-15T20:22:18.280Z,100062.56
2018-06-15T20:25:22.402Z,100059.33
2018-06-15T20:28:26.298Z,100062.89
2018-06-15T20:31:29.477Z,100064.52
2018-06-15T20:34:33.495Z,100060.53
2018-06-15T20:37:36.668Z,100069.43
2018-06-15T20:40:40.406Z,100072.70
2018-06-15T20:43:44.809Z,100074.17
2018-06-15T20:46:48.017Z,100065.66
2018-06-15T20:49:51.066Z,100073.46
2018-06-15T20:52:54.062Z,100064.26
2018-06-15T20:55:57.129Z,100065.90
2018-06-15T20:59:00.081Z,100055.41
2018-06-15T21:02:03.881Z,100056.47
2018-06-15T21:05:06.850Z,100066.61
2018-06-15T21:08:09.750Z,100060.01
2018-06-15T21:11:12.665Z,100060.84
2018-06-15T21:14:15.573Z,100063.47
2018-06-15T21:17:18.757Z,100059.91
2018-06-15T21:20:28.346Z,100056.45
2018-06-15T21:23:31.260Z,100054.49
2018-06-15T21:26:34.200Z,100050.06
2018-06-15T21:29:37.103Z,100050.45
2018-06-15T21:32:40.410Z,100050.75
2018-06-15T21:35:43.402Z,100043.37
2018-06-15T21:38:47.328Z,100049.97
2018-06-15T21:41:50.521Z,100046.89
2018-06-15T21:44:53.465Z,100051.22
2018-06-15T21:47:56.593Z,100046.55
2018-06-15T21:50:59.543Z,100049.91
2018-06-15T21:54:03.037Z,100052.44
2018-06-15T21:57:06.435Z,100046.09
2018-06-15T22:00:20.906Z,100043.02
2018-06-15T22:03:25.132Z,100043.49
2018-06-15T22:06:28.454Z,100043.49
2018-06-15T22:09:36.989Z,100041.66
2018-06-15T22:12:39.923Z,100043.72
2018-06-15T22:15:42.877Z,100033.70
2018-06-15T22:18:45.793Z,100034.70
2018-06-15T22:21:49.420Z,100037.42
2018-06-15T22:24:52.481Z,100036.84
2018-06-15T22:27:55.540Z,100035.11
2018-06-15T22:30:58.500Z,100036.55
2018-06-15T22:34:01.449Z,100035.59
2018-06-15T22:37:04.457Z,100038.52
2018-06-15T22:40:07.401Z,100036.59
2018-06-15T22:43:10.369Z,100036.12
2018-06-15T22:46:13.324Z,100034.31
2018-06-15T22:49:16.289Z,100040.80
2018-06-15T22:52:19.233Z,100035.73
2018-06-15T22:55:22.182Z,100037.46
2018-06-15T22:58:25.128Z,100044.05
2018-06-15T23:01:28.121Z,100049.72
2018-06-15T23:04:31.066Z,100047.01
2018-06-15T23:07:34.037Z,100049.27
2018-06-15T23:10:36.989Z,100051.73
2018-06-15T23:13:40.033Z,100048.08
2018-06-15T23:16:42.977Z,100051.42
2018-06-15T23:19:45.948Z,100048.02
2018-06-15T23:24:13.480Z,100050.16
2018-06-15T23:27:16.887Z,100044.87
2018-06-15T23:30:20.472Z,100042.99
2018-06-15T23:33:23.452Z,100043.42
2018-06-15T23:36:26.400Z,100047.03
2018-06-15T23:39:30.784Z,100047.55
2018-06-15T23:42:34.893Z,100046.45
2018-06-15T23:45:37.855Z,100048.83
2018-06-15T23:48:40.825Z,100048.48
2018-06-15T23:51:43.767Z,100052.39
2018-06-15T23:54:46.755Z,100047.19
2018-06-15T23:57:49.807Z,100052.09
